Time;durP1;ratioP1;P1;durP2;ratioP2;P2;SDS_P1;SDS_P2;PMS_P1;PMS_P2;Temp;Humidity;BMP_temperature;BMP_pressure;BME280_temperature;BME280_humidity;BME280_pressure;Samples;Min_cycle;Max_cycle;Signal;HPM_P1;HPM_P2
2023/12/15 00:01:19;;;;;;;25.13;14.18;;;5.50;99.90;;;;;;5057352;28;20107;-65
2023/12/15 00:03:44;;;;;;;29.23;15.18;;;5.60;99.90;;;;;;5051586;28;20044;-65
2023/12/15 00:06:10;;;;;;;27.75;14.55;;;5.50;99.90;;;;;;5048193;28;20146;-65
2023/12/15 00:08:36;;;;;;;31.48;16.20;;;5.50;99.90;;;;;;5051727;28;20055;-65
2023/12/15 00:11:01;;;;;;;27.65;14.13;;;5.50;99.90;;;;;;5048892;28;20052;-65
2023/12/15 00:13:27;;;;;;;30.15;16.27;;;5.50;99.90;;;;;;5055713;28;20146;-65
2023/12/15 00:15:53;;;;;;;30.25;16.77;;;5.50;99.90;;;;;;5053341;28;20059;-65
2023/12/15 00:18:20;;;;;;;28.92;16.02;;;5.50;99.90;;;;;;5032220;28;20032;-65
2023/12/15 00:20:47;;;;;;;27.05;15.68;;;5.90;99.90;;;;;;5065703;28;20139;-65
2023/12/15 00:23:13;;;;;;;27.55;16.13;;;5.60;99.90;;;;;;5054821;28;20408;-65
2023/12/15 00:25:39;;;;;;;29.45;16.08;;;5.60;99.90;;;;;;5048704;28;20049;-65
2023/12/15 00:28:04;;;;;;;32.65;16.13;;;5.60;99.90;;;;;;5051941;28;20187;-65
2023/12/15 00:30:30;;;;;;;30.52;15.85;;;5.60;99.90;;;;;;5053394;28;20072;-64
2023/12/15 00:32:56;;;;;;;28.10;15.20;;;5.60;99.90;;;;;;5048295;28;20053;-65
2023/12/15 00:35:22;;;;;;;29.63;16.70;;;5.60;99.90;;;;;;5044939;28;20045;-65
2023/12/15 00:37:48;;;;;;;32.25;16.90;;;5.60;99.90;;;;;;5056541;28;20091;-65
2023/12/15 00:40:14;;;;;;;30.88;16.38;;;5.70;99.90;;;;;;5048723;28;20125;-66
2023/12/15 00:42:40;;;;;;;31.17;16.88;;;5.70;99.90;;;;;;5055527;28;20040;-65
2023/12/15 00:45:06;;;;;;;29.33;17.73;;;5.70;99.90;;;;;;5046315;28;20033;-64
2023/12/15 00:47:31;;;;;;;36.08;18.60;;;5.70;99.90;;;;;;5055056;28;20513;-65
2023/12/15 00:49:59;;;;;;;28.30;16.60;;;5.70;99.90;;;;;;5054624;28;20040;-64
2023/12/15 00:52:25;;;;;;;29.40;17.17;;;5.70;99.90;;;;;;5058568;28;20048;-65
2023/12/15 00:54:51;;;;;;;37.90;19.30;;;5.70;99.90;;;;;;5061448;28;20603;-65
2023/12/15 00:57:17;;;;;;;38.83;17.88;;;5.70;99.90;;;;;;5048529;28;20045;-65
2023/12/15 00:59:43;;;;;;;31.45;18.30;;;5.70;99.90;;;;;;5041968;28;20872;-65
2023/12/15 01:02:09;;;;;;;33.50;18.58;;;5.70;99.90;;;;;;5052760;28;20510;-65
2023/12/15 01:04:35;;;;;;;34.42;18.50;;;5.70;99.90;;;;;;5050274;28;20052;-65
2023/12/15 01:07:01;;;;;;;40.80;19.55;;;5.70;99.90;;;;;;5040535;28;20136;-65
2023/12/15 01:09:27;;;;;;;40.88;19.55;;;5.80;99.90;;;;;;5048911;28;20041;-66
2023/12/15 01:11:53;;;;;;;38.33;19.55;;;5.80;99.90;;;;;;5049046;28;20667;-65
2023/12/15 01:14:19;;;;;;;38.65;19.98;;;5.80;99.90;;;;;;5050762;28;20041;-65
2023/12/15 01:16:49;;;;;;;36.75;20.42;;;5.80;99.90;;;;;;5039243;28;20040;-65
2023/12/15 01:19:17;;;;;;;37.25;20.70;;;5.90;99.90;;;;;;5043216;28;20079;-64
2023/12/15 01:21:43;;;;;;;41.92;21.48;;;5.80;99.90;;;;;;5027169;28;20049;-64
2023/12/15 01:24:10;;;;;;;39.47;21.25;;;5.80;99.90;;;;;;5035824;28;20045;-64
2023/12/15 01:26:36;;;;;;;42.05;21.50;;;5.90;99.90;;;;;;5041023;28;20047;-65
2023/12/15 01:29:02;;;;;;;38.53;21.52;;;5.90;99.90;;;;;;5035531;28;20451;-65
2023/12/15 01:31:27;;;;;;;36.10;21.30;;;5.90;99.90;;;;;;5035126;28;20123;-65
2023/12/15 01:33:53;;;;;;;44.88;22.13;;;5.90;99.90;;;;;;5033839;28;20056;-65
2023/12/15 01:36:19;;;;;;;42.17;21.70;;;6.00;99.90;;;;;;5037769;28;20052;-64
2023/12/15 01:38:45;;;;;;;39.95;21.55;;;5.90;99.90;;;;;;5017337;28;20128;-65
2023/12/15 01:41:11;;;;;;;40.03;22.88;;;5.90;99.90;;;;;;5037543;28;20126;-65
2023/12/15 01:43:36;;;;;;;45.22;23.02;;;5.90;99.90;;;;;;5040485;28;20044;-65
2023/12/15 01:46:02;;;;;;;48.33;24.42;;;6.10;99.90;;;;;;5038269;28;20046;-64
2023/12/15 01:48:30;;;;;;;46.35;22.55;;;5.90;99.90;;;;;;5036678;28;20037;-65
2023/12/15 01:50:56;;;;;;;41.83;23.30;;;6.20;99.90;;;;;;5024688;28;20048;-65
2023/12/15 01:53:22;;;;;;;44.05;22.40;;;6.00;99.90;;;;;;5033140;28;20045;-65
2023/12/15 01:55:48;;;;;;;49.70;23.80;;;6.00;99.90;;;;;;5034731;28;20128;-65
2023/12/15 01:58:14;;;;;;;48.80;24.63;;;6.00;99.90;;;;;;5041575;28;20588;-64
2023/12/15 02:00:40;;;;;;;56.53;25.48;;;6.30;99.90;;;;;;5018391;28;20095;-65
2023/12/15 02:03:06;;;;;;;48.17;24.95;;;6.10;99.90;;;;;;5040833;28;20077;-65
2023/12/15 02:05:32;;;;;;;48.28;24.02;;;6.10;99.90;;;;;;5037732;28;20075;-65
2023/12/15 02:07:58;;;;;;;48.55;25.02;;;6.10;99.90;;;;;;5034337;28;20379;-65
2023/12/15 02:10:24;;;;;;;53.85;25.48;;;6.10;99.90;;;;;;5037395;28;20041;-64
2023/12/15 02:12:50;;;;;;;45.63;23.48;;;6.10;99.90;;;;;;5041650;28;20036;-65
2023/12/15 02:15:17;;;;;;;45.17;24.10;;;6.10;99.90;;;;;;5034048;28;20048;-65
2023/12/15 02:17:42;;;;;;;44.50;23.80;;;6.20;99.90;;;;;;5031873;28;20150;-64
2023/12/15 02:20:08;;;;;;;42.13;23.27;;;6.20;99.90;;;;;;5016544;28;20489;-65
2023/12/15 02:22:34;;;;;;;45.35;23.80;;;6.20;99.90;;;;;;5035817;28;20120;-65
2023/12/15 02:25:00;;;;;;;38.38;22.83;;;6.20;99.90;;;;;;5039904;28;20151;-66
2023/12/15 02:27:25;;;;;;;46.20;23.73;;;6.20;99.90;;;;;;5031809;28;20042;-64
2023/12/15 02:29:51;;;;;;;42.35;23.40;;;6.30;99.90;;;;;;5037322;28;20565;-65
2023/12/15 02:32:17;;;;;;;41.65;21.70;;;6.30;99.90;;;;;;5037911;28;20059;-65
2023/12/15 02:34:43;;;;;;;42.92;23.05;;;6.30;99.90;;;;;;5037522;28;20049;-65
2023/12/15 02:37:08;;;;;;;45.83;21.92;;;6.30;99.90;;;;;;5049841;28;20770;-65
2023/12/15 02:39:37;;;;;;;37.75;20.40;;;6.20;99.90;;;;;;5051183;28;20037;-64
2023/12/15 02:42:03;;;;;;;40.83;21.10;;;6.30;99.90;;;;;;5034197;28;20067;-65
2023/12/15 02:44:29;;;;;;;44.85;21.33;;;6.30;99.90;;;;;;5033409;28;20061;-64
2023/12/15 02:46:54;;;;;;;40.25;21.75;;;6.30;99.90;;;;;;5014207;28;20060;-65
2023/12/15 02:49:20;;;;;;;40.80;20.75;;;6.30;99.90;;;;;;5045307;28;20049;-65
2023/12/15 02:51:46;;;;;;;37.60;21.42;;;6.30;99.90;;;;;;5018781;28;20053;-65
2023/12/15 02:54:12;;;;;;;38.40;21.88;;;6.30;99.90;;;;;;5046087;28;20060;-65
2023/12/15 02:56:37;;;;;;;35.75;20.90;;;6.90;99.90;;;;;;5049540;28;20053;-65
2023/12/15 02:59:03;;;;;;;41.00;21.85;;;6.30;99.90;;;;;;5030158;28;20041;-65
2023/12/15 03:01:29;;;;;;;38.33;21.10;;;6.30;99.90;;;;;;5035419;28;20045;-68
2023/12/15 03:03:55;;;;;;;35.22;19.88;;;6.30;99.90;;;;;;5050205;28;20052;-65
2023/12/15 03:06:21;;;;;;;36.70;20.92;;;6.30;99.90;;;;;;5040841;28;20044;-65
2023/12/15 03:08:47;;;;;;;40.65;21.30;;;6.30;99.90;;;;;;5028804;28;20045;-65
2023/12/15 03:11:13;;;;;;;35.80;21.75;;;6.80;99.90;;;;;;5035758;28;20094;-66
2023/12/15 03:13:39;;;;;;;40.75;21.50;;;6.20;99.90;;;;;;5033198;28;20045;-65
2023/12/15 03:16:09;;;;;;;38.47;21.13;;;6.20;99.90;;;;;;5033788;28;20046;-65
2023/12/15 03:18:35;;;;;;;36.35;19.98;;;6.20;99.90;;;;;;5032342;28;20042;-64
2023/12/15 03:21:01;;;;;;;42.75;22.02;;;6.20;99.90;;;;;;5034735;28;20098;-64
2023/12/15 03:23:27;;;;;;;36.85;20.35;;;6.20;99.90;;;;;;5056859;28;20044;-64
2023/12/15 03:25:52;;;;;;;36.63;19.15;;;6.20;99.90;;;;;;5032996;28;20045;-64
2023/12/15 03:28:18;;;;;;;37.33;20.58;;;6.10;99.90;;;;;;5049223;28;20442;-65
2023/12/15 03:30:44;;;;;;;36.17;19.90;;;6.10;99.90;;;;;;5043441;28;20045;-68
2023/12/15 03:33:10;;;;;;;41.90;21.20;;;6.10;99.90;;;;;;5035226;28;20055;-65
2023/12/15 03:35:36;;;;;;;32.80;19.75;;;6.10;99.90;;;;;;5037165;28;20072;-64
2023/12/15 03:38:05;;;;;;;40.88;20.48;;;6.10;99.90;;;;;;5039387;28;20075;-65
2023/12/15 03:40:31;;;;;;;37.47;19.40;;;6.00;99.90;;;;;;5040902;28;20140;-64
2023/12/15 03:42:57;;;;;;;38.38;19.73;;;6.00;99.90;;;;;;5040789;28;20044;-65
2023/12/15 03:45:23;;;;;;;33.45;19.15;;;6.00;99.90;;;;;;5066925;28;20037;-64
2023/12/15 03:47:51;;;;;;;29.70;18.38;;;6.00;99.90;;;;;;5041649;28;20058;-65
2023/12/15 03:50:16;;;;;;;36.83;19.42;;;6.00;99.90;;;;;;5029881;28;20055;-64
2023/12/15 03:52:42;;;;;;;36.75;19.02;;;5.80;99.90;;;;;;5032673;28;20040;-66
2023/12/15 03:55:08;;;;;;;37.80;19.30;;;6.00;99.90;;;;;;5033250;28;20067;-64
2023/12/15 03:57:34;;;;;;;34.28;18.42;;;6.00;99.90;;;;;;5032349;28;20056;-65
2023/12/15 03:59:59;;;;;;;33.20;18.75;;;5.90;99.90;;;;;;5037916;28;20048;-64
2023/12/15 04:02:25;;;;;;;31.00;18.20;;;5.90;99.90;;;;;;5037975;28;20123;-64
2023/12/15 04:04:51;;;;;;;35.03;18.63;;;5.90;99.90;;;;;;5032945;28;20041;-64
2023/12/15 04:07:17;;;;;;;33.55;17.27;;;5.90;99.90;;;;;;5040901;28;20468;-65
2023/12/15 04:09:44;;;;;;;36.85;18.65;;;5.90;99.90;;;;;;5030929;28;20048;-66
2023/12/15 04:12:09;;;;;;;30.27;16.08;;;6.00;99.90;;;;;;5035731;28;20528;-64
2023/12/15 04:14:35;;;;;;;35.85;17.25;;;5.90;99.90;;;;;;5042577;28;20079;-64
2023/12/15 04:17:01;;;;;;;32.63;17.33;;;5.90;99.90;;;;;;5032209;28;20773;-65
2023/12/15 04:19:27;;;;;;;31.27;17.00;;;5.90;99.90;;;;;;5014190;28;20633;-65
2023/12/15 04:21:52;;;;;;;31.70;16.70;;;5.90;99.90;;;;;;5025048;28;20037;-65
2023/12/15 04:24:18;;;;;;;31.42;15.68;;;5.90;99.90;;;;;;5037336;28;20058;-65
2023/12/15 04:26:44;;;;;;;30.95;17.08;;;5.90;99.90;;;;;;5043539;28;20040;-65
2023/12/15 04:29:10;;;;;;;34.75;17.08;;;5.90;99.90;;;;;;5036229;28;20114;-65
2023/12/15 04:31:36;;;;;;;30.70;16.73;;;5.80;99.90;;;;;;5021134;28;20057;-65
2023/12/15 04:34:02;;;;;;;36.88;17.83;;;5.80;99.90;;;;;;5035944;28;20053;-65
2023/12/15 04:36:28;;;;;;;29.83;15.40;;;6.30;99.90;;;;;;5042687;28;20120;-65
2023/12/15 04:38:54;;;;;;;30.83;15.98;;;5.80;99.90;;;;;;5034742;28;20042;-66
2023/12/15 04:41:23;;;;;;;29.98;15.68;;;5.80;99.90;;;;;;5040566;28;20052;-65
2023/12/15 04:43:49;;;;;;;26.63;15.13;;;5.50;99.90;;;;;;5034151;28;20130;-65
2023/12/15 04:46:41;;;;;;;30.13;15.07;;;5.80;99.90;;;;;;5047370;28;20051;-65
2023/12/15 04:49:07;;;;;;;31.58;15.63;;;5.80;99.90;;;;;;5031759;28;20052;-64
2023/12/15 04:51:33;;;;;;;32.17;16.38;;;5.80;99.90;;;;;;5047577;28;20051;-64
2023/12/15 04:53:59;;;;;;;26.70;14.38;;;5.90;99.90;;;;;;5050427;28;20076;-66
2023/12/15 04:56:25;;;;;;;25.40;15.07;;;6.20;99.90;;;;;;5048305;28;20045;-64
2023/12/15 04:58:51;;;;;;;29.48;15.23;;;5.80;99.90;;;;;;5054276;28;20086;-65
2023/12/15 05:01:16;;;;;;;29.85;14.25;;;6.00;99.90;;;;;;5046790;28;20073;-65
2023/12/15 05:03:43;;;;;;;29.75;14.30;;;5.90;99.90;;;;;;5042476;28;20071;-66
2023/12/15 05:06:20;;;;;;;29.88;14.50;;;5.70;99.90;;;;;;5038830;28;20048;-65
2023/12/15 05:08:53;;;;;;;27.35;13.98;;;5.70;99.90;;;;;;5050620;28;20071;-65
2023/12/15 05:11:20;;;;;;;25.92;13.60;;;5.70;99.90;;;;;;5040738;28;20123;-65
2023/12/15 05:13:46;;;;;;;22.42;13.07;;;5.70;99.90;;;;;;5059628;28;20123;-65
2023/12/15 05:16:12;;;;;;;25.75;13.38;;;5.70;99.90;;;;;;5038039;28;20128;-65
2023/12/15 05:18:38;;;;;;;32.22;13.82;;;5.70;99.90;;;;;;5032810;28;20122;-65
2023/12/15 05:21:05;;;;;;;29.33;13.80;;;5.80;99.90;;;;;;5039761;28;20057;-64
2023/12/15 05:23:31;;;;;;;26.20;12.73;;;5.60;99.90;;;;;;5037912;28;20132;-65
2023/12/15 05:25:56;;;;;;;31.58;14.10;;;5.60;99.90;;;;;;5029954;28;20058;-65
2023/12/15 05:28:22;;;;;;;28.67;13.30;;;5.70;99.90;;;;;;5035671;28;20045;-65
2023/12/15 05:30:48;;;;;;;29.17;12.25;;;5.60;99.90;;;;;;5031707;28;20072;-65
2023/12/15 05:33:13;;;;;;;24.55;11.65;;;5.60;99.90;;;;;;5032193;28;20103;-64
2023/12/15 05:35:39;;;;;;;29.08;12.20;;;5.60;99.90;;;;;;5032288;28;20091;-65
2023/12/15 05:38:05;;;;;;;25.67;12.55;;;5.60;99.90;;;;;;5052810;28;20048;-65
2023/12/15 05:40:31;;;;;;;25.25;12.55;;;5.50;99.90;;;;;;5037719;28;20140;-65
2023/12/15 05:42:57;;;;;;;30.35;13.30;;;5.50;99.90;;;;;;5032861;28;20049;-65
2023/12/15 05:45:23;;;;;;;56.42;13.52;;;6.10;99.90;;;;;;5046437;28;20045;-64
2023/12/15 05:47:49;;;;;;;30.40;13.27;;;5.50;99.90;;;;;;5030763;28;20056;-64
2023/12/15 05:50:15;;;;;;;27.77;12.88;;;5.60;99.90;;;;;;5034114;28;20045;-64
2023/12/15 05:52:40;;;;;;;33.05;13.68;;;5.50;99.90;;;;;;5033318;28;20413;-64
2023/12/15 05:55:07;;;;;;;33.70;12.90;;;5.40;99.90;;;;;;5035881;28;20049;-65
2023/12/15 05:57:32;;;;;;;27.08;12.75;;;5.40;99.90;;;;;;5029157;28;20052;-65
2023/12/15 05:59:58;;;;;;;31.00;12.27;;;5.50;99.90;;;;;;5032042;28;20059;-64
2023/12/15 06:02:24;;;;;;;38.67;11.82;;;5.50;99.90;;;;;;5042687;28;20047;-65
2023/12/15 06:04:49;;;;;;;35.28;11.90;;;5.40;99.90;;;;;;5036308;28;20076;-65
2023/12/15 06:07:15;;;;;;;28.27;12.07;;;5.40;99.90;;;;;;5031068;28;20056;-64
2023/12/15 06:09:42;;;;;;;31.27;11.18;;;5.60;99.90;;;;;;5025955;28;20044;-64
2023/12/15 06:12:09;;;;;;;38.25;11.65;;;5.40;99.90;;;;;;5028191;28;20040;-65
2023/12/15 06:14:38;;;;;;;24.45;10.88;;;5.40;99.90;;;;;;5028678;28;20045;-64
2023/12/15 06:17:07;;;;;;;32.35;10.65;;;5.40;99.90;;;;;;5036620;28;20076;-65
2023/12/15 06:19:33;;;;;;;29.83;11.07;;;5.40;99.90;;;;;;5037098;28;20045;-65
2023/12/15 06:22:00;;;;;;;27.38;10.20;;;5.40;99.90;;;;;;5026377;28;20044;-65
2023/12/15 06:24:25;;;;;;;31.05;10.40;;;5.40;99.90;;;;;;5033703;28;20041;-64
2023/12/15 06:26:51;;;;;;;28.05;9.45;;;5.40;99.90;;;;;;5030391;28;20041;-65
2023/12/15 06:29:17;;;;;;;34.67;10.93;;;5.40;99.90;;;;;;5043653;28;20051;-65
2023/12/15 06:31:47;;;;;;;30.27;10.98;;;5.30;99.90;;;;;;5029197;28;20132;-65
2023/12/15 06:34:13;;;;;;;29.98;9.27;;;5.30;99.90;;;;;;5026639;28;20123;-64
2023/12/15 06:36:39;;;;;;;22.20;9.73;;;5.30;99.90;;;;;;5022570;28;20122;-65
2023/12/15 06:39:05;;;;;;;24.95;9.75;;;5.30;99.90;;;;;;5024903;28;20060;-65
2023/12/15 06:41:31;;;;;;;26.10;9.93;;;5.50;99.90;;;;;;5027287;28;20053;-65
2023/12/15 06:43:57;;;;;;;27.02;9.57;;;5.30;99.90;;;;;;5022774;28;20074;-65
2023/12/15 06:46:23;;;;;;;29.77;10.57;;;5.30;99.90;;;;;;5020835;28;20055;-65
2023/12/15 06:48:48;;;;;;;28.42;10.40;;;5.30;99.90;;;;;;5027971;28;20060;-65
2023/12/15 06:51:14;;;;;;;25.02;9.35;;;5.30;99.90;;;;;;5028459;28;20731;-66
2023/12/15 06:53:40;;;;;;;28.15;8.98;;;5.30;99.90;;;;;;5022282;28;20479;-65
2023/12/15 06:56:06;;;;;;;28.80;9.13;;;5.20;99.90;;;;;;5023116;28;20095;-64
2023/12/15 06:58:32;;;;;;;29.38;9.95;;;5.20;99.90;;;;;;5023826;28;20327;-65
2023/12/15 07:00:58;;;;;;;30.60;9.40;;;5.20;99.90;;;;;;5024033;28;20222;-65
2023/12/15 07:03:24;;;;;;;23.02;8.75;;;5.20;99.90;;;;;;5037483;28;20112;-65
2023/12/15 07:05:53;;;;;;;30.25;9.45;;;5.20;99.90;;;;;;5014231;28;20487;-64
2023/12/15 07:08:19;;;;;;;31.98;9.02;;;5.20;99.90;;;;;;5019713;28;22005;-65
2023/12/15 07:10:45;;;;;;;31.58;9.73;;;5.20;99.90;;;;;;5022115;28;20045;-64
2023/12/15 07:13:11;;;;;;;29.05;8.23;;;5.20;99.90;;;;;;5026904;28;20044;-65
2023/12/15 07:15:38;;;;;;;27.05;8.77;;;5.10;99.90;;;;;;5025381;28;20107;-64
2023/12/15 07:18:03;;;;;;;28.50;8.88;;;5.10;99.90;;;;;;5030566;28;20457;-64
2023/12/15 07:20:29;;;;;;;32.75;8.10;;;5.10;99.90;;;;;;5030496;28;20233;-65
2023/12/15 07:22:55;;;;;;;29.77;8.57;;;5.70;99.90;;;;;;5033316;28;20057;-65
2023/12/15 07:25:24;;;;;;;38.10;8.05;;;5.10;99.90;;;;;;5025806;28;20893;-64
2023/12/15 07:27:50;;;;;;;29.98;8.05;;;5.10;99.90;;;;;;5011628;28;20052;-65
2023/12/15 07:30:16;;;;;;;21.60;7.82;;;5.10;99.90;;;;;;5035763;28;20045;-65
2023/12/15 07:32:42;;;;;;;29.40;7.55;;;5.10;99.90;;;;;;5035317;28;20048;-65
2023/12/15 07:35:09;;;;;;;24.30;7.22;;;5.10;99.90;;;;;;5024035;28;20130;-64
2023/12/15 07:37:34;;;;;;;24.08;7.18;;;5.10;99.90;;;;;;5028208;28;20057;-64
2023/12/15 07:40:03;;;;;;;33.15;7.20;;;5.10;99.90;;;;;;5030047;28;20435;-65
2023/12/15 07:42:29;;;;;;;23.85;7.28;;;5.10;99.90;;;;;;5030145;28;20048;-64
2023/12/15 07:44:55;;;;;;;29.00;6.90;;;5.00;99.90;;;;;;5016276;28;20619;-64
2023/12/15 07:47:21;;;;;;;27.63;7.30;;;5.10;99.90;;;;;;5037432;28;20045;-64
2023/12/15 07:49:46;;;;;;;25.58;7.47;;;5.10;99.90;;;;;;5020354;28;20072;-64
2023/12/15 07:52:12;;;;;;;22.10;6.68;;;5.10;99.90;;;;;;5032266;28;20167;-64
2023/12/15 07:54:38;;;;;;;31.27;7.05;;;5.10;99.90;;;;;;5029592;28;20049;-65
2023/12/15 07:57:04;;;;;;;23.60;6.35;;;5.20;99.90;;;;;;5021090;28;20048;-64
2023/12/15 07:59:29;;;;;;;24.73;7.40;;;5.10;99.90;;;;;;5033183;28;20045;-64
2023/12/15 08:01:55;;;;;;;25.38;7.35;;;5.10;99.90;;;;;;5040934;28;20053;-64
2023/12/15 08:04:21;;;;;;;24.38;7.15;;;5.10;99.90;;;;;;5050263;28;21398;-64
2023/12/15 08:06:47;;;;;;;31.15;7.35;;;5.20;99.90;;;;;;5031819;28;20596;-65
2023/12/15 08:09:12;;;;;;;26.30;6.65;;;5.30;99.90;;;;;;5037651;28;21447;-65
2023/12/15 08:11:38;;;;;;;27.58;7.03;;;5.20;99.90;;;;;;5030797;28;20060;-64
2023/12/15 08:14:04;;;;;;;40.20;7.90;;;5.20;99.90;;;;;;5032623;28;20543;-64
2023/12/15 08:16:30;;;;;;;25.48;6.40;;;5.20;99.90;;;;;;5034728;28;20045;-64
2023/12/15 08:18:57;;;;;;;24.40;6.07;;;5.20;99.90;;;;;;5034458;28;20073;-64
2023/12/15 08:21:23;;;;;;;30.58;6.78;;;5.30;99.90;;;;;;5036247;28;20055;-72
2023/12/15 08:23:49;;;;;;;26.92;7.30;;;4.60;99.90;;;;;;5036991;28;20056;-64
2023/12/15 08:26:29;;;;;;;30.50;6.80;;;5.20;99.90;;;;;;5031915;28;20455;-65
2023/12/15 08:28:55;;;;;;;23.23;6.78;;;5.30;99.90;;;;;;5012138;28;20053;-64
2023/12/15 08:31:24;;;;;;;30.33;6.45;;;5.20;99.90;;;;;;5047142;28;20051;-65
2023/12/15 08:33:51;;;;;;;24.67;6.80;;;5.20;99.90;;;;;;5032755;28;20049;-64
2023/12/15 08:36:17;;;;;;;27.52;6.13;;;5.20;99.90;;;;;;5027262;28;20072;-64
2023/12/15 08:38:43;;;;;;;25.50;6.10;;;5.30;99.90;;;;;;5032070;28;20136;-64
2023/12/15 08:41:09;;;;;;;22.50;5.82;;;5.20;99.90;;;;;;5028233;28;20098;-65
2023/12/15 08:43:35;;;;;;;26.45;6.43;;;5.20;99.90;;;;;;5050201;28;20067;-65
2023/12/15 08:46:01;;;;;;;27.30;6.30;;;5.30;99.90;;;;;;5043448;28;20037;-65
2023/12/15 08:48:27;;;;;;;24.67;6.82;;;5.30;99.90;;;;;;5033491;28;20052;-65
2023/12/15 08:50:53;;;;;;;29.33;6.30;;;5.30;99.90;;;;;;5033640;28;20048;-64
2023/12/15 08:53:19;;;;;;;26.23;5.88;;;5.30;99.90;;;;;;5033454;28;20114;-65
2023/12/15 08:55:45;;;;;;;29.63;5.97;;;5.30;99.90;;;;;;5034122;28;20588;-65
2023/12/15 08:58:12;;;;;;;26.58;5.75;;;5.40;99.90;;;;;;5029878;28;20079;-65
2023/12/15 09:00:38;;;;;;;28.85;6.53;;;5.30;99.90;;;;;;5030174;28;20532;-64
2023/12/15 09:03:04;;;;;;;34.97;6.38;;;5.30;99.90;;;;;;5037538;28;20048;-64
2023/12/15 09:05:31;;;;;;;21.02;5.35;;;5.30;99.90;;;;;;5035269;28;20044;-64
2023/12/15 09:07:58;;;;;;;25.63;5.20;;;5.30;99.90;;;;;;5016625;28;20103;-63
2023/12/15 09:10:25;;;;;;;29.30;5.78;;;5.30;99.90;;;;;;5009473;28;20513;-64
2023/12/15 09:12:52;;;;;;;28.40;5.38;;;5.40;99.90;;;;;;5034682;28;20060;-64
2023/12/15 09:15:17;;;;;;;22.13;4.90;;;5.40;99.90;;;;;;5031827;28;20057;-64
2023/12/15 09:17:44;;;;;;;29.35;5.97;;;5.40;99.90;;;;;;5034943;28;20677;-65
2023/12/15 09:20:11;;;;;;;30.58;6.47;;;5.40;99.90;;;;;;5034856;28;20056;-65
2023/12/15 09:22:37;;;;;;;29.02;6.00;;;5.40;99.90;;;;;;5032821;28;20354;-65
2023/12/15 09:25:04;;;;;;;23.25;5.20;;;5.40;99.90;;;;;;5032705;28;20074;-65
2023/12/15 09:27:29;;;;;;;26.92;5.57;;;5.50;99.90;;;;;;5030881;28;20049;-64
2023/12/15 09:29:55;;;;;;;27.88;7.40;;;5.50;99.90;;;;;;5035116;28;20506;-66
2023/12/15 09:32:21;;;;;;;29.77;5.53;;;6.10;99.90;;;;;;5030645;28;20041;-65
2023/12/15 09:34:47;;;;;;;26.80;5.93;;;5.50;99.90;;;;;;5028055;28;20127;-65
2023/12/15 09:37:13;;;;;;;32.03;6.28;;;5.50;99.90;;;;;;5027247;28;20608;-65
2023/12/15 09:39:39;;;;;;;30.75;6.13;;;5.60;99.90;;;;;;5028932;28;20041;-65
2023/12/15 09:42:05;;;;;;;27.98;6.43;;;5.60;99.90;;;;;;5032385;28;20036;-65
2023/12/15 09:44:31;;;;;;;27.80;6.75;;;5.60;99.90;;;;;;5014257;28;20418;-65
2023/12/15 09:46:58;;;;;;;30.00;5.68;;;5.70;99.90;;;;;;5030094;28;20041;-65
2023/12/15 09:49:25;;;;;;;28.92;6.47;;;5.70;99.90;;;;;;5015994;28;20098;-64
2023/12/15 09:51:54;;;;;;;28.90;6.97;;;5.70;99.90;;;;;;5031215;28;20102;-64
2023/12/15 09:54:21;;;;;;;29.08;6.20;;;5.80;99.90;;;;;;5027015;28;20132;-64
2023/12/15 09:56:47;;;;;;;34.45;5.60;;;5.80;99.90;;;;;;5030530;28;20429;-65
2023/12/15 09:59:13;;;;;;;32.58;6.00;;;5.90;99.90;;;;;;5031404;28;20045;-65
2023/12/15 10:01:39;;;;;;;29.42;5.80;;;5.90;99.90;;;;;;5032828;28;20450;-67
2023/12/15 10:04:05;;;;;;;32.08;5.55;;;5.90;99.90;;;;;;5029595;28;20128;-65
2023/12/15 10:06:37;;;;;;;35.10;5.43;;;6.00;99.90;;;;;;5025198;28;20082;-65
2023/12/15 10:09:13;;;;;;;30.52;5.97;;;6.00;99.90;;;;;;5042685;28;20041;-65
2023/12/15 10:11:39;;;;;;;35.28;5.60;;;6.10;99.90;;;;;;5025166;28;20141;-65
2023/12/15 10:14:07;;;;;;;37.75;5.80;;;6.10;99.90;;;;;;5031079;28;20518;-65
2023/12/15 10:16:34;;;;;;;36.35;5.80;;;6.20;99.90;;;;;;5030399;28;20049;-65
2023/12/15 10:19:05;;;;;;;39.78;6.32;;;6.20;99.90;;;;;;5031202;28;20060;-65
2023/12/15 10:21:31;;;;;;;;;;;6.30;99.90;;;;;;5023457;28;20040;-65
2023/12/15 10:23:59;;;;;;;42.20;5.55;;;6.30;99.90;;;;;;5024416;28;19931;-65
2023/12/15 10:26:26;;;;;;;33.60;6.13;;;6.30;99.90;;;;;;5033673;28;20075;-65
2023/12/15 10:28:54;;;;;;;26.63;5.15;;;6.30;99.90;;;;;;5034976;28;20049;-65
2023/12/15 10:31:19;;;;;;;39.50;6.18;;;6.30;99.90;;;;;;5037517;28;20124;-65
2023/12/15 10:33:45;;;;;;;37.65;5.80;;;6.40;99.90;;;;;;5055291;28;20103;-65
2023/12/15 10:36:14;;;;;;;41.83;5.68;;;6.40;99.90;;;;;;5028077;28;20049;-65
2023/12/15 10:38:40;;;;;;;36.33;6.43;;;6.50;99.90;;;;;;5039862;28;20451;-65
2023/12/15 10:41:07;;;;;;;38.60;6.20;;;6.50;99.90;;;;;;5045144;28;20056;-65
2023/12/15 10:43:34;;;;;;;35.88;6.05;;;6.50;99.90;;;;;;5042963;28;20124;-66
2023/12/15 10:46:02;;;;;;;41.92;6.30;;;6.50;99.90;;;;;;5023533;28;20048;-65
2023/12/15 10:48:30;;;;;;;35.72;5.75;;;6.60;99.90;;;;;;5044949;28;20044;-66
2023/12/15 10:50:58;;;;;;;33.85;6.13;;;6.60;99.90;;;;;;5041922;28;20084;-65
2023/12/15 10:53:25;;;;;;;39.80;5.45;;;6.70;99.90;;;;;;5041297;28;20052;-65
2023/12/15 10:55:52;;;;;;;35.40;5.38;;;6.60;99.90;;;;;;5039394;28;20068;-65
2023/12/15 10:58:18;;;;;;;36.13;5.85;;;6.70;99.90;;;;;;5039740;28;20048;-66
2023/12/15 11:00:46;;;;;;;36.08;5.85;;;6.70;99.90;;;;;;5039874;28;20269;-66
2023/12/15 11:03:12;;;;;;;31.38;5.35;;;6.80;99.90;;;;;;5047289;28;20045;-66
2023/12/15 11:05:41;;;;;;;38.30;5.60;;;7.00;99.90;;;;;;5042193;28;20579;-66
2023/12/15 11:08:08;;;;;;;35.25;5.90;;;6.80;99.90;;;;;;5043622;28;20041;-66
2023/12/15 11:10:35;;;;;;;35.22;5.82;;;6.90;99.90;;;;;;5043348;28;20357;-65
2023/12/15 11:13:00;;;;;;;34.45;5.30;;;7.00;99.90;;;;;;5040349;28;20040;-65
2023/12/15 11:15:27;;;;;;;40.33;6.40;;;7.20;99.90;;;;;;5049208;28;20056;-65
2023/12/15 11:17:58;;;;;;;35.92;6.43;;;7.10;99.90;;;;;;5046627;28;20505;-65
2023/12/15 11:20:25;;;;;;;;;;;7.50;99.90;;;;;;5042685;28;20589;-66
2023/12/15 11:22:57;;;;;;;44.15;7.68;;;6.80;99.90;;;;;;5031544;28;19925;-65
2023/12/15 11:26:03;;;;;;;47.17;8.00;;;7.20;99.90;;;;;;5029826;28;20053;-66
2023/12/15 11:28:30;;;;;;;40.78;7.90;;;7.20;99.90;;;;;;5037499;28;20123;-65
2023/12/15 11:30:56;;;;;;;46.90;6.82;;;7.30;99.90;;;;;;5032009;28;20051;-65
2023/12/15 11:33:39;;;;;;;35.35;6.00;;;7.40;99.90;;;;;;5036311;28;20791;-66
2023/12/15 11:36:07;;;;;;;39.35;6.38;;;7.40;99.90;;;;;;5033863;28;20132;-65
2023/12/15 11:38:34;;;;;;;38.45;5.63;;;7.40;99.90;;;;;;5033737;28;20772;-65
2023/12/15 11:41:01;;;;;;;39.92;5.90;;;7.50;99.90;;;;;;5031330;28;20165;-66
2023/12/15 11:43:33;;;;;;;63.20;8.00;;;7.50;99.90;;;;;;5012897;28;20533;-65
2023/12/15 11:46:00;;;;;;;37.58;5.90;;;7.70;99.90;;;;;;5036485;28;20083;-67
2023/12/15 11:48:26;;;;;;;40.63;6.97;;;7.60;99.90;;;;;;5040440;28;20052;-66
2023/12/15 11:50:52;;;;;;;34.60;6.55;;;7.80;99.90;;;;;;5033795;28;20045;-67
2023/12/15 11:53:18;;;;;;;42.30;5.90;;;7.60;99.90;;;;;;5035690;28;20110;-64
2023/12/15 11:55:46;;;;;;;43.53;5.80;;;7.60;99.90;;;;;;5034400;28;20037;-66
2023/12/15 11:58:15;;;;;;;37.45;5.82;;;7.70;99.90;;;;;;5044201;28;20050;-66
2023/12/15 12:00:42;;;;;;;53.70;7.75;;;7.70;99.90;;;;;;5051138;28;20404;-66
2023/12/15 12:03:12;;;;;;;37.40;6.40;;;7.70;99.90;;;;;;5038726;28;20044;-67
2023/12/15 12:05:39;;;;;;;40.55;5.45;;;7.80;99.90;;;;;;5033091;28;20413;-66
2023/12/15 12:08:05;;;;;;;38.25;6.45;;;7.80;99.90;;;;;;5018251;28;20110;-64
2023/12/15 12:10:39;;;;;;;33.92;5.93;;;7.80;99.90;;;;;;5025434;28;20115;-65
2023/12/15 12:13:06;;;;;;;40.25;6.75;;;7.90;99.90;;;;;;5026129;28;20148;-66
2023/12/15 12:15:32;;;;;;;47.53;7.47;;;7.90;99.90;;;;;;5023077;28;20118;-65
2023/12/15 12:17:59;;;;;;;40.22;6.30;;;8.00;99.90;;;;;;5041265;28;20657;-66
2023/12/15 12:20:28;;;;;;;28.77;5.18;;;8.00;99.90;;;;;;5032144;28;20095;-66
2023/12/15 12:22:55;;;;;;;38.08;6.30;;;8.00;99.90;;;;;;5036819;28;20036;-66
2023/12/15 12:25:22;;;;;;;35.25;5.57;;;8.00;99.90;;;;;;5029088;28;20144;-66
2023/12/15 12:27:53;;;;;;;33.55;5.90;;;8.00;99.90;;;;;;5036718;28;20107;-66
2023/12/15 12:30:19;;;;;;;43.13;6.72;;;8.00;99.90;;;;;;5032160;28;20049;-66
2023/12/15 12:32:46;;;;;;;33.80;6.28;;;8.00;99.90;;;;;;5032501;28;20797;-67
2023/12/15 12:35:12;;;;;;;35.50;7.05;;;8.00;99.90;;;;;;5037045;28;20053;-67
2023/12/15 12:37:38;;;;;;;37.50;6.22;;;8.10;99.90;;;;;;5047242;28;20500;-67
2023/12/15 12:40:05;;;;;;;29.73;5.45;;;8.00;99.90;;;;;;5044915;28;20575;-66